Latest Weather Observations for Argyle

IDW60801

Issued at 9:05 am WST Friday 29 August 2014 (issued every 30 minutes, with the page automatically refreshed every 10 minutes)

About weather observations | Map of weather stations | Latest weather observations for WA | Other Formats
Station Details ID: 002064 Name: ARGYLE AERODROME Lat: -16.64 Lon: 128.45 Height: 164.0 m
Data from the previous 72 hours. | See also: Recent months at Argyle
Date/Time
WST
Temp
°C
App
Temp
°C
Dew
Point
Rel
Hum
%
Delta-T
°C
Wind Press
QNH
hPa
Press
MSL
hPa
Rain
since 9 am
mm
Dir
 
Spd
km/h
Gust
km/h
Spd
kts
Gust
kts
29/09:00am 25.4 19.5 -10.4 8 13.7 ENE 15 24 8 13 1020.2 1019.3 0.0
29/08:30am 24.6 19.9 -9.1 10 13.1 E 9 17 5 9 1020.2 - 0.0
29/08:00am 23.9 19.7 -8.2 11 12.6 E 7 11 4 6 1019.9 - 0.0
29/07:30am 23.0 18.4 -8.0 12 12.1 ESE 9 13 5 7 1019.6 - 0.0
29/07:00am 21.4 17.7 -4.7 17 10.7 SSW 6 7 3 4 1019.3 - 0.0
29/06:30am 18.1 14.0 -6.5 18 9.4 SW 7 9 4 5 1019.0 - 0.0
29/06:00am 16.9 12.3 -7.4 18 9.0 SW 9 11 5 6 1018.5 1017.7 0.0
29/05:30am 17.0 13.2 -5.6 21 8.7 WNW 6 6 3 3 1018.1 - 0.0
29/05:00am 16.9 12.6 -8.6 16 9.2 W 7 9 4 5 1017.9 - 0.0
29/04:30am 16.6 12.3 -8.8 16 9.1 W 7 9 4 5 1017.8 - 0.0
29/04:00am 16.4 12.4 -7.1 19 8.7 NW 6 7 3 4 1017.6 - 0.0
29/03:30am 16.1 11.8 -8.4 18 8.8 WNW 7 9 4 5 1017.4 - 0.0
29/03:00am 16.2 11.1 -10.0 15 9.1 NW 11 11 6 6 1017.3 1016.5 0.0
29/02:30am 17.4 14.1 -8.9 16 9.5 WNW 2 9 1 5 1017.1 - 0.0
29/02:00am 16.2 12.2 -7.6 19 8.7 E 6 7 3 4 1017.1 - 0.0
29/01:30am 17.0 12.6 -6.1 20 8.8 E 9 11 5 6 1017.1 - 0.0
29/01:00am 18.8 14.2 -7.9 15 10.0 ESE 9 11 5 6 1017.1 - 0.0
29/12:30am 19.0 16.3 -6.2 17 9.8 CALM 0 0 0 0 1017.2 - 0.0
29/12:00am 18.7 14.5 -10.1 13 10.3 SE 6 11 3 6 1017.3 1016.5 0.0
 
Date/Time
WST
Temp
°C
App
Temp
°C
Dew
Point
Rel
Hum
%
Delta-T
°C
Wind Press
QNH
hPa
Press
MSL
hPa
Rain
since 9 am
mm
Dir
 
Spd
km/h
Gust
km/h
Spd
kts
Gust
kts
28/11:30pm 19.2 14.2 -8.6 14 10.3 E 11 13 6 7 1017.5 - 0.0
28/11:00pm 20.1 15.1 -7.7 14 10.6 E 11 13 6 7 1017.7 - 0.0
28/10:30pm 20.9 15.8 -9.0 12 11.2 ESE 11 11 6 6 1017.6 - 0.0
28/10:00pm 20.9 15.9 -8.3 13 11.1 SE 11 11 6 6 1017.6 - 0.0
28/09:30pm 21.8 17.4 -6.2 15 11.2 SE 9 11 5 6 1017.4 - 0.0
28/09:00pm 22.3 17.9 -5.9 14 11.4 SE 9 11 5 6 1017.3 1016.5 0.0
28/08:30pm 22.8 18.2 -8.5 11 12.1 SE 9 11 5 6 1017.2 - 0.0
28/08:00pm 22.7 18.2 -7.0 13 11.8 SE 9 9 5 5 1017.2 - 0.0
28/07:30pm 23.1 18.8 -8.8 11 12.3 SSE 7 9 4 5 1017.0 - 0.0
28/07:00pm 23.3 19.4 -4.7 15 11.7 ESE 7 9 4 5 1016.7 - 0.0
28/06:30pm 23.9 19.8 -6.2 13 12.3 ESE 7 9 4 5 1016.3 - 0.0
28/06:00pm 24.4 20.3 -6.4 12 12.6 E 7 9 4 5 1015.9 1015.0 0.0
28/05:30pm 25.9 21.1 -10.5 8 14.0 E 9 11 5 6 1015.5 - 0.0
28/05:00pm 28.0 22.1 -17.1 4 15.8 E 13 19 7 10 1015.1 - 0.0
28/04:30pm 29.0 22.2 -21.0 3 16.6 E 17 22 9 12 1014.9 - 0.0
28/04:00pm 29.5 23.4 -19.9 3 16.8 E 13 22 7 12 1014.8 - 0.0
28/03:30pm 29.9 23.5 -19.6 3 17.0 ESE 15 20 8 11 1014.7 - 0.0
28/03:00pm 30.0 24.0 -18.8 3 17.0 E 13 17 7 9 1014.9 1014.0 0.0
28/02:30pm 29.9 22.5 -21.3 3 17.1 ESE 20 30 11 16 1015.1 - 0.0
28/02:00pm 29.4 22.7 -17.8 4 16.6 NE 17 28 9 15 1015.4 - 0.0
28/01:30pm 30.2 23.3 -24.1 2 17.4 E 17 35 9 19 1015.7 - 0.0
28/01:00pm 29.0 23.3 -19.5 3 16.5 E 11 24 6 13 1016.1 - 0.0
28/12:30pm 28.9 21.7 -20.5 3 16.5 E 19 30 10 16 1016.7 - 0.0
28/12:00pm 28.8 21.5 -23.4 2 16.6 E 19 28 10 15 1017.5 1016.7 0.0
28/11:30am 28.3 20.8 -22.8 3 16.3 E 20 30 11 16 1018.2 - 0.0
28/11:00am 28.5 21.1 -20.9 3 16.3 ENE 20 30 11 16 1018.7 - 0.0
28/10:30am 27.5 20.2 -17.1 4 15.5 E 20 30 11 16 1019.2 - 0.0
28/10:00am 27.2 20.1 -16.6 5 15.3 E 19 28 10 15 1019.5 - 0.0
28/09:30am 25.5 18.3 -16.5 5 14.4 E 20 28 11 15 1019.9 - 0.0
28/09:00am 24.3 16.3 -16.7 5 13.8 E 24 35 13 19 1020.2 1019.3 0.0
28/08:30am 23.6 15.8 -20.1 4 13.7 E 22 35 12 19 1020.3 - 0.0
28/08:00am 23.2 18.2 -13.2 8 12.9 E 9 13 5 7 1020.1 - 0.0
28/07:30am 22.3 16.9 -13.7 8 12.5 ENE 11 17 6 9 1020.1 - 0.0
28/07:00am 21.7 17.5 -10.4 11 11.8 ESE 6 11 3 6 1019.7 - 0.0
28/06:30am 18.0 14.3 -8.5 15 9.7 SW 4 7 2 4 1019.3 - 0.0
28/06:00am 16.7 12.7 -8.0 17 9.0 WSW 6 7 3 4 1019.0 1018.1 0.0
28/05:30am 16.0 11.4 -7.6 19 8.6 WSW 9 11 5 6 1018.7 - 0.0
28/05:00am 16.0 11.5 -7.0 20 8.5 SW 9 11 5 6 1018.1 - 0.0
28/04:30am 16.5 12.2 -8.5 17 9.0 SSW 7 9 4 5 1017.7 - 0.0
28/04:00am 17.5 14.1 -5.4 20 8.9 E 4 7 2 4 1017.3 - 0.0
28/03:30am 16.0 11.9 -6.5 20 8.4 NNW 7 11 4 6 1017.2 - 0.0
28/03:00am 15.4 10.9 -6.9 21 8.2 WNW 9 - 5 - - 1016.1 0.0
28/02:30am 16.9 11.9 -8.0 17 9.1 N 11 11 6 6 1017.0 - 0.0
28/02:00am 17.1 12.9 -8.0 17 9.2 E 7 9 4 5 1016.9 - 0.0
28/01:30am 16.7 11.9 -5.8 21 8.6 E 11 11 6 6 1016.8 - 0.0
28/01:00am 16.7 12.0 -5.3 21 8.5 E 11 13 6 7 1016.7 - 0.0
28/12:30am 17.6 12.8 -6.1 19 9.1 E 11 11 6 6 1016.8 - 0.0
28/12:00am 18.5 13.6 -7.0 17 9.7 E 11 13 6 7 1017.0 1016.1 0.0
 
Date/Time
WST
Temp
°C
App
Temp
°C
Dew
Point
Rel
Hum
%
Delta-T
°C
Wind Press
QNH
hPa
Press
MSL
hPa
Rain
since 9 am
mm
Dir
 
Spd
km/h
Gust
km/h
Spd
kts
Gust
kts
27/11:30pm 18.7 13.4 -7.6 16 9.9 E 13 15 7 8 1017.1 - 0.0
27/11:00pm 19.3 14.0 -7.7 15 10.2 E 13 15 7 8 1017.3 - 0.0
27/10:30pm 19.3 14.5 -6.0 17 9.9 E 11 13 6 7 1017.3 - 0.0
27/10:00pm 19.6 14.9 -5.2 18 9.9 E 11 13 6 7 1017.3 - 0.0
27/09:30pm 20.4 15.2 -6.3 16 10.5 E 13 13 7 7 1017.3 - 0.0
27/09:00pm 21.4 16.4 -8.0 13 11.3 E 11 13 6 7 1017.3 1016.5 0.0
27/08:30pm 21.5 17.2 -4.9 16 10.8 ENE 9 11 5 6 1017.0 - 0.0
27/08:00pm 22.1 17.7 -5.4 15 11.2 E 9 11 5 6 1016.9 - 0.0
27/07:57pm 22.4 18.0 -6.1 14 11.5 E 9 11 5 6 1016.9 - 0.0
27/07:41pm 22.2 18.5 -3.1 18 10.8 E 7 9 4 5 1016.8 - 0.0
27/07:30pm 22.6 18.8 -4.0 16 11.2 E 7 9 4 5 1016.8 - 0.0
27/07:00pm 24.0 19.2 -6.5 12 12.4 ESE 11 13 6 7 1016.3 - 0.0
27/06:30pm 24.7 20.4 -4.4 14 12.4 SE 9 11 5 6 1016.0 - 0.0
27/06:00pm 25.3 20.9 -5.4 12 12.9 ESE 9 11 5 6 1015.6 1014.7 0.0
27/05:30pm 26.4 21.9 -6.6 11 13.7 E 9 13 5 7 1015.1 - 0.0
27/05:00pm 28.6 22.5 -12.5 6 15.7 E 15 20 8 11 1014.8 - 0.0
27/04:30pm 29.5 23.2 -15.7 4 16.5 E 15 24 8 13 1014.5 - 0.0
27/04:00pm 30.3 23.4 -13.2 5 16.7 E 19 28 10 15 1014.5 - 0.0
27/03:30pm 30.3 23.8 -13.2 5 16.7 E 17 32 9 17 1014.5 - 0.0
27/03:00pm 30.3 23.9 -11.3 6 16.5 E 17 28 9 15 1014.5 1013.6 0.0
27/02:30pm 30.4 23.3 -13.6 5 16.8 E 20 32 11 17 1014.5 - 0.0
27/02:00pm 30.4 22.6 -12.6 5 16.7 E 24 35 13 19 1014.8 - 0.0
27/01:30pm 30.1 22.7 -12.3 5 16.5 ENE 22 32 12 17 1015.1 - 0.0
27/01:00pm 30.6 24.1 -12.6 5 16.8 E 17 32 9 17 1015.6 - 0.0
27/12:30pm 30.0 23.2 -9.5 7 16.1 ESE 20 32 11 17 1016.0 - 0.0
27/12:00pm 30.3 23.1 -9.8 7 16.3 ENE 22 32 12 17 1016.5 1015.6 0.0
27/11:30am 29.3 22.4 -10.2 7 15.8 E 20 32 11 17 1017.3 - 0.0
27/11:00am 28.2 20.1 -11.1 7 15.3 E 26 37 14 20 1017.9 - 0.0
27/10:30am 28.1 21.2 -10.8 7 15.2 E 20 32 11 17 1018.5 - 0.0
27/10:00am 27.4 20.6 -9.9 8 14.7 E 20 32 11 17 1019.1 - 0.0
27/09:30am 26.5 19.7 -9.7 8 14.2 E 20 30 11 16 1019.4 - 0.0
27/09:00am 25.8 19.0 -9.6 9 13.8 E 20 35 11 19 1019.5 1018.6 0.0
27/08:30am 24.5 17.9 -6.8 12 12.7 E 20 28 11 15 1019.8 - 0.0
27/08:00am 23.4 16.0 -7.9 12 12.3 ENE 24 32 13 17 1019.6 - 0.0
27/07:54am 23.3 15.2 -7.0 12 12.1 E 28 32 15 17 1019.6 - 0.0
27/07:30am 22.3 18.2 -3.4 17 10.9 ENE 9 13 5 7 1019.4 - 0.0
27/07:00am 20.7 17.2 -3.1 20 10.0 ENE 6 9 3 5 1019.0 - 0.0
27/06:30am 17.9 15.6 -2.3 25 8.4 CALM 0 0 0 0 1018.3 - 0.0
27/06:00am 16.0 13.9 -0.5 32 7.0 CALM 0 0 0 0 1017.7 1016.9 0.0
27/05:30am 15.9 12.5 -2.2 29 7.4 E 6 7 3 4 1017.2 - 0.0
27/05:00am 16.7 12.8 -1.4 29 7.6 E 9 11 5 6 1016.9 - 0.0
27/04:30am 17.0 12.6 -2.8 25 8.1 E 11 13 6 7 1016.5 - 0.0
27/04:00am 17.2 12.3 -3.3 24 8.3 E 13 15 7 8 1016.2 - 0.0
27/03:30am 17.3 12.4 -3.0 25 8.3 E 13 17 7 9 1016.1 - 0.0
27/03:00am 17.8 13.5 -2.0 26 8.3 E 11 13 6 7 1016.2 1015.3 0.0
27/02:30am 17.8 13.3 -2.9 24 8.5 E 11 13 6 7 1016.4 - 0.0
27/02:00am 18.6 14.0 -4.2 21 9.2 E 11 15 6 8 1016.3 - 0.0
27/01:30am 17.8 13.8 -2.0 26 8.3 E 9 11 5 6 1016.4 - 0.0
27/01:00am 19.2 14.6 -3.8 21 9.4 ENE 11 15 6 8 1016.6 - 0.0
27/12:30am 19.2 14.6 -3.8 21 9.4 ENE 11 11 6 6 1016.6 - 0.0
27/12:00am 19.4 14.8 -3.8 20 9.5 ENE 11 13 6 7 1016.8 1015.9 0.0
 
Date/Time
WST
Temp
°C
App
Temp
°C
Dew
Point
Rel
Hum
%
Delta-T
°C
Wind Press
QNH
hPa
Press
MSL
hPa
Rain
since 9 am
mm
Dir
 
Spd
km/h
Gust
km/h
Spd
kts
Gust
kts
26/11:30pm 20.0 15.4 -4.2 19 9.9 ENE 11 13 6 7 1016.9 - 0.0
26/11:00pm 19.5 15.4 -3.1 21 9.4 E 9 11 5 6 1016.9 - 0.0
26/10:30pm 19.9 15.6 -4.5 19 9.9 E 9 11 5 6 1016.9 - 0.0
26/10:00pm 20.1 15.9 -4.0 19 9.9 E 9 11 5 6 1016.9 - 0.0
26/09:30pm 20.5 16.0 -3.5 19 10.0 ESE 11 13 6 7 1016.8 - 0.0
26/09:00pm 21.8 17.6 -4.1 17 10.8 E 9 11 5 6 1016.8 1015.9 0.0
26/08:30pm 22.1 17.8 -4.8 16 11.1 ESE 9 13 5 7 1016.8 - 0.0
26/08:00pm 24.1 18.8 -6.8 12 12.5 SE 13 15 7 8 1016.6 - 0.0
26/07:30pm 23.6 19.2 -5.4 14 12.0 SE 9 13 5 7 1016.4 - 0.0
26/07:00pm 24.5 19.7 -6.1 12 12.6 SSE 11 15 6 8 1016.1 - 0.0
26/06:30pm 24.3 20.0 -4.5 14 12.2 SE 9 13 5 7 1015.8 - 0.0
26/06:00pm 24.8 21.1 -3.2 15 12.2 ESE 7 11 4 6 1015.3 1014.4 0.0
26/05:30pm 26.8 22.0 -6.5 10 13.9 SE 11 15 6 8 1015.0 - 0.0
26/05:00pm 28.6 23.8 -6.5 9 14.9 ESE 11 15 6 8 1014.8 - 0.0
26/04:30pm 29.4 24.3 -9.7 7 15.8 ESE 11 17 6 9 1014.7 - 0.0
26/04:00pm 30.1 23.7 -11.4 6 16.4 E 17 32 9 17 1014.8 - 0.0
26/03:30pm 30.2 24.3 -9.3 7 16.2 E 15 26 8 14 1014.8 - 0.0
26/03:00pm 30.7 23.9 -12.0 5 16.8 ESE 19 32 10 17 1014.9 1014.0 0.0
26/02:30pm 30.2 25.1 -9.3 7 16.2 NE 11 17 6 9 1015.1 - 0.0
26/02:00pm 30.5 23.9 -9.6 7 16.4 E 19 30 10 16 1015.3 - 0.0
26/01:30pm 29.8 24.0 -8.8 7 15.9 ENE 15 20 8 11 1015.6 - 0.0
26/01:00pm 29.5 22.9 -9.3 7 15.8 ESE 19 30 10 16 1016.0 - 0.0
26/12:30pm 29.2 22.5 -8.4 8 15.5 E 20 35 11 19 1016.6 - 0.0
26/12:00pm 29.5 23.4 -7.9 8 15.6 E 17 35 9 19 1017.1 1016.3 0.0
26/11:30am 28.4 22.0 -7.3 9 14.9 ENE 19 26 10 14 1017.8 - 0.0
26/11:00am 28.8 22.1 -8.6 8 15.3 E 20 35 11 19 1018.5 - 0.0
26/10:30am 28.2 19.2 -8.2 8 14.9 E 32 39 17 21 1019.3 - 0.0
26/10:00am 27.9 19.7 -7.9 9 14.7 E 28 48 15 26 1019.6 - 0.0
26/09:58am 27.7 19.4 -8.7 8 14.7 E 28 48 15 26 1019.5 - 0.0
26/09:30am 27.1 21.6 -5.7 11 13.9 SSE 15 22 8 12 1019.9 - 0.0

Other Formats:

Comma delimited format used in spreadsheet applications
http://www.bom.gov.au/fwo/IDW60801/IDW60801.94217.axf

JavaScript Object Notation format (JSON) in row-major order
http://www.bom.gov.au/fwo/IDW60801/IDW60801.94217.json